sensor_id;sensor_type;location;lat;lon;timestamp;P1;durP1;ratioP1;P2;durP2;ratioP2
80199;SDS011;69520;44.900;-0.764;2023-05-10T00:00:14;10.37;;;1.30;;
80199;SDS011;69520;44.900;-0.764;2023-05-10T00:02:40;12.23;;;1.27;;
80199;SDS011;69520;44.900;-0.764;2023-05-10T00:05:06;12.98;;;1.40;;
80199;SDS011;69520;44.900;-0.764;2023-05-10T00:07:32;8.45;;;0.90;;
80199;SDS011;69520;44.900;-0.764;2023-05-10T00:09:58;12.23;;;1.80;;
80199;SDS011;69520;44.900;-0.764;2023-05-10T00:12:24;8.10;;;1.00;;
80199;SDS011;69520;44.900;-0.764;2023-05-10T00:14:50;13.43;;;1.15;;
80199;SDS011;69520;44.900;-0.764;2023-05-10T00:17:16;11.10;;;1.42;;
80199;SDS011;69520;44.900;-0.764;2023-05-10T00:19:42;11.65;;;1.27;;
80199;SDS011;69520;44.900;-0.764;2023-05-10T00:22:08;11.15;;;1.10;;
80199;SDS011;69520;44.900;-0.764;2023-05-10T00:24:35;11.03;;;1.20;;
80199;SDS011;69520;44.900;-0.764;2023-05-10T00:27:01;10.43;;;1.27;;
80199;SDS011;69520;44.900;-0.764;2023-05-10T00:29:29;9.38;;;1.20;;
80199;SDS011;69520;44.900;-0.764;2023-05-10T00:31:55;8.25;;;1.08;;
80199;SDS011;69520;44.900;-0.764;2023-05-10T00:34:21;8.15;;;1.00;;
80199;SDS011;69520;44.900;-0.764;2023-05-10T00:36:47;10.97;;;1.20;;
80199;SDS011;69520;44.900;-0.764;2023-05-10T00:39:13;12.02;;;1.60;;
80199;SDS011;69520;44.900;-0.764;2023-05-10T00:41:39;8.77;;;1.20;;
80199;SDS011;69520;44.900;-0.764;2023-05-10T00:44:05;9.48;;;1.00;;
80199;SDS011;69520;44.900;-0.764;2023-05-10T00:46:31;8.75;;;0.82;;
80199;SDS011;69520;44.900;-0.764;2023-05-10T00:48:57;8.87;;;1.13;;
80199;SDS011;69520;44.900;-0.764;2023-05-10T00:51:24;8.73;;;1.02;;
80199;SDS011;69520;44.900;-0.764;2023-05-10T00:53:50;7.60;;;0.98;;
80199;SDS011;69520;44.900;-0.764;2023-05-10T00:56:17;14.43;;;1.38;;
80199;SDS011;69520;44.900;-0.764;2023-05-10T00:58:45;7.88;;;1.23;;
80199;SDS011;69520;44.900;-0.764;2023-05-10T01:01:11;12.57;;;1.17;;
80199;SDS011;69520;44.900;-0.764;2023-05-10T01:03:37;8.65;;;1.15;;
80199;SDS011;69520;44.900;-0.764;2023-05-10T01:06:04;9.00;;;0.90;;
80199;SDS011;69520;44.900;-0.764;2023-05-10T01:08:30;9.45;;;1.02;;
80199;SDS011;69520;44.900;-0.764;2023-05-10T01:10:56;5.95;;;1.15;;
80199;SDS011;69520;44.900;-0.764;2023-05-10T01:13:29;9.77;;;0.97;;
80199;SDS011;69520;44.900;-0.764;2023-05-10T01:15:58;8.45;;;1.27;;
80199;SDS011;69520;44.900;-0.764;2023-05-10T01:18:27;9.68;;;1.05;;
80199;SDS011;69520;44.900;-0.764;2023-05-10T01:20:59;8.07;;;0.90;;
80199;SDS011;69520;44.900;-0.764;2023-05-10T01:34:02;8.50;;;0.90;;
80199;SDS011;69520;44.900;-0.764;2023-05-10T01:36:39;10.18;;;1.15;;
80199;SDS011;69520;44.900;-0.764;2023-05-10T01:41:45;9.00;;;1.08;;
80199;SDS011;69520;44.900;-0.764;2023-05-10T01:46:48;10.05;;;1.20;;
80199;SDS011;69520;44.900;-0.764;2023-05-10T01:49:23;10.77;;;1.27;;
80199;SDS011;69520;44.900;-0.764;2023-05-10T01:51:51;9.80;;;1.07;;
80199;SDS011;69520;44.900;-0.764;2023-05-10T01:54:19;9.50;;;1.17;;
80199;SDS011;69520;44.900;-0.764;2023-05-10T01:56:47;10.40;;;1.05;;
80199;SDS011;69520;44.900;-0.764;2023-05-10T01:59:16;9.15;;;1.10;;
80199;SDS011;69520;44.900;-0.764;2023-05-10T02:01:43;9.35;;;1.05;;
80199;SDS011;69520;44.900;-0.764;2023-05-10T02:04:10;12.33;;;0.97;;
80199;SDS011;69520;44.900;-0.764;2023-05-10T02:06:37;11.63;;;1.30;;
80199;SDS011;69520;44.900;-0.764;2023-05-10T02:09:04;8.20;;;1.02;;
80199;SDS011;69520;44.900;-0.764;2023-05-10T02:11:30;10.27;;;1.20;;
80199;SDS011;69520;44.900;-0.764;2023-05-10T02:13:57;9.02;;;0.95;;
80199;SDS011;69520;44.900;-0.764;2023-05-10T02:16:24;8.07;;;1.10;;
80199;SDS011;69520;44.900;-0.764;2023-05-10T02:18:52;13.50;;;1.58;;
80199;SDS011;69520;44.900;-0.764;2023-05-10T02:21:19;6.68;;;0.95;;
80199;SDS011;69520;44.900;-0.764;2023-05-10T02:23:46;8.75;;;1.15;;
80199;SDS011;69520;44.900;-0.764;2023-05-10T02:26:12;9.55;;;1.02;;
80199;SDS011;69520;44.900;-0.764;2023-05-10T02:28:40;7.20;;;0.93;;
80199;SDS011;69520;44.900;-0.764;2023-05-10T02:31:06;6.90;;;0.90;;
80199;SDS011;69520;44.900;-0.764;2023-05-10T02:33:34;10.07;;;1.15;;
80199;SDS011;69520;44.900;-0.764;2023-05-10T02:36:01;6.55;;;1.00;;
80199;SDS011;69520;44.900;-0.764;2023-05-10T02:38:27;14.10;;;1.65;;
80199;SDS011;69520;44.900;-0.764;2023-05-10T02:40:54;10.43;;;1.10;;
80199;SDS011;69520;44.900;-0.764;2023-05-10T02:43:20;4.60;;;1.08;;
80199;SDS011;69520;44.900;-0.764;2023-05-10T02:45:48;9.18;;;1.42;;
80199;SDS011;69520;44.900;-0.764;2023-05-10T02:48:15;9.35;;;1.15;;
80199;SDS011;69520;44.900;-0.764;2023-05-10T02:50:42;9.10;;;1.25;;
80199;SDS011;69520;44.900;-0.764;2023-05-10T02:53:10;8.57;;;1.43;;
80199;SDS011;69520;44.900;-0.764;2023-05-10T02:55:37;9.27;;;1.60;;
80199;SDS011;69520;44.900;-0.764;2023-05-10T02:58:04;11.75;;;1.25;;
80199;SDS011;69520;44.900;-0.764;2023-05-10T03:00:30;12.27;;;1.20;;
80199;SDS011;69520;44.900;-0.764;2023-05-10T03:02:57;10.95;;;1.73;;
80199;SDS011;69520;44.900;-0.764;2023-05-10T03:05:23;10.87;;;1.30;;
80199;SDS011;69520;44.900;-0.764;2023-05-10T03:07:49;10.57;;;1.35;;
80199;SDS011;69520;44.900;-0.764;2023-05-10T03:10:16;9.02;;;1.20;;
80199;SDS011;69520;44.900;-0.764;2023-05-10T03:20:50;6.47;;;0.88;;
80199;SDS011;69520;44.900;-0.764;2023-05-10T03:25:46;8.13;;;1.10;;
80199;SDS011;69520;44.900;-0.764;2023-05-10T03:28:14;9.15;;;1.00;;
80199;SDS011;69520;44.900;-0.764;2023-05-10T03:30:41;8.07;;;1.07;;
80199;SDS011;69520;44.900;-0.764;2023-05-10T03:33:08;8.32;;;1.20;;
80199;SDS011;69520;44.900;-0.764;2023-05-10T03:35:34;8.73;;;1.10;;
80199;SDS011;69520;44.900;-0.764;2023-05-10T03:38:00;9.30;;;1.08;;
80199;SDS011;69520;44.900;-0.764;2023-05-10T03:40:27;6.25;;;1.20;;
80199;SDS011;69520;44.900;-0.764;2023-05-10T03:42:54;7.37;;;0.80;;
80199;SDS011;69520;44.900;-0.764;2023-05-10T03:45:20;9.25;;;1.25;;
80199;SDS011;69520;44.900;-0.764;2023-05-10T03:47:47;6.70;;;0.98;;
80199;SDS011;69520;44.900;-0.764;2023-05-10T03:50:13;6.78;;;0.98;;
80199;SDS011;69520;44.900;-0.764;2023-05-10T03:52:39;9.35;;;1.00;;
80199;SDS011;69520;44.900;-0.764;2023-05-10T03:55:05;7.03;;;1.30;;
80199;SDS011;69520;44.900;-0.764;2023-05-10T03:57:31;9.45;;;1.20;;
80199;SDS011;69520;44.900;-0.764;2023-05-10T03:59:58;10.15;;;0.93;;
80199;SDS011;69520;44.900;-0.764;2023-05-10T04:02:23;7.78;;;0.85;;
80199;SDS011;69520;44.900;-0.764;2023-05-10T04:04:49;7.47;;;1.15;;
80199;SDS011;69520;44.900;-0.764;2023-05-10T04:07:15;6.20;;;1.00;;
80199;SDS011;69520;44.900;-0.764;2023-05-10T04:09:42;9.77;;;1.10;;
80199;SDS011;69520;44.900;-0.764;2023-05-10T04:12:08;8.57;;;0.95;;
80199;SDS011;69520;44.900;-0.764;2023-05-10T04:14:34;8.02;;;1.15;;
80199;SDS011;69520;44.900;-0.764;2023-05-10T04:17:00;10.25;;;1.80;;
80199;SDS011;69520;44.900;-0.764;2023-05-10T04:19:30;9.43;;;1.70;;
80199;SDS011;69520;44.900;-0.764;2023-05-10T04:21:56;10.23;;;2.35;;
80199;SDS011;69520;44.900;-0.764;2023-05-10T04:24:22;12.32;;;2.20;;
80199;SDS011;69520;44.900;-0.764;2023-05-10T04:26:50;10.05;;;1.40;;
80199;SDS011;69520;44.900;-0.764;2023-05-10T04:29:16;12.05;;;1.60;;
80199;SDS011;69520;44.900;-0.764;2023-05-10T04:31:42;8.87;;;1.50;;
80199;SDS011;69520;44.900;-0.764;2023-05-10T04:34:08;9.35;;;1.48;;
80199;SDS011;69520;44.900;-0.764;2023-05-10T04:36:34;10.73;;;1.40;;
80199;SDS011;69520;44.900;-0.764;2023-05-10T04:39:01;10.27;;;1.55;;
80199;SDS011;69520;44.900;-0.764;2023-05-10T04:41:28;13.88;;;3.65;;
80199;SDS011;69520;44.900;-0.764;2023-05-10T04:43:54;10.37;;;2.57;;
80199;SDS011;69520;44.900;-0.764;2023-05-10T04:46:20;13.75;;;2.28;;
80199;SDS011;69520;44.900;-0.764;2023-05-10T04:48:46;12.52;;;1.67;;
80199;SDS011;69520;44.900;-0.764;2023-05-10T04:51:12;12.43;;;2.15;;
80199;SDS011;69520;44.900;-0.764;2023-05-10T04:53:39;9.35;;;1.55;;
80199;SDS011;69520;44.900;-0.764;2023-05-10T04:56:05;11.23;;;2.27;;
80199;SDS011;69520;44.900;-0.764;2023-05-10T04:58:31;10.25;;;1.70;;
80199;SDS011;69520;44.900;-0.764;2023-05-10T05:01:04;12.23;;;1.70;;
80199;SDS011;69520;44.900;-0.764;2023-05-10T05:03:30;12.80;;;1.98;;
80199;SDS011;69520;44.900;-0.764;2023-05-10T05:05:57;11.55;;;1.52;;
80199;SDS011;69520;44.900;-0.764;2023-05-10T05:08:23;11.17;;;1.50;;
80199;SDS011;69520;44.900;-0.764;2023-05-10T05:10:49;8.90;;;1.60;;
80199;SDS011;69520;44.900;-0.764;2023-05-10T05:13:15;11.55;;;1.63;;
80199;SDS011;69520;44.900;-0.764;2023-05-10T05:15:41;9.52;;;1.15;;
80199;SDS011;69520;44.900;-0.764;2023-05-10T05:18:07;10.40;;;1.50;;
80199;SDS011;69520;44.900;-0.764;2023-05-10T05:20:33;11.03;;;1.53;;
80199;SDS011;69520;44.900;-0.764;2023-05-10T05:22:59;10.02;;;1.38;;
80199;SDS011;69520;44.900;-0.764;2023-05-10T05:25:25;12.43;;;1.40;;
80199;SDS011;69520;44.900;-0.764;2023-05-10T05:27:51;12.18;;;1.30;;
80199;SDS011;69520;44.900;-0.764;2023-05-10T05:30:17;6.75;;;1.40;;
80199;SDS011;69520;44.900;-0.764;2023-05-10T05:32:43;11.60;;;1.63;;
80199;SDS011;69520;44.900;-0.764;2023-05-10T05:35:09;13.68;;;1.70;;
80199;SDS011;69520;44.900;-0.764;2023-05-10T05:37:36;9.98;;;1.40;;
80199;SDS011;69520;44.900;-0.764;2023-05-10T05:40:02;8.63;;;1.15;;
80199;SDS011;69520;44.900;-0.764;2023-05-10T05:42:29;9.85;;;1.75;;
80199;SDS011;69520;44.900;-0.764;2023-05-10T05:44:56;9.73;;;1.20;;
80199;SDS011;69520;44.900;-0.764;2023-05-10T05:47:22;12.25;;;1.50;;
80199;SDS011;69520;44.900;-0.764;2023-05-10T05:49:48;10.07;;;1.75;;
80199;SDS011;69520;44.900;-0.764;2023-05-10T05:52:14;7.00;;;1.42;;
80199;SDS011;69520;44.900;-0.764;2023-05-10T05:54:40;11.18;;;1.33;;
80199;SDS011;69520;44.900;-0.764;2023-05-10T05:57:06;8.90;;;1.33;;
80199;SDS011;69520;44.900;-0.764;2023-05-10T05:59:32;9.63;;;1.55;;
80199;SDS011;69520;44.900;-0.764;2023-05-10T06:01:58;6.75;;;0.98;;
80199;SDS011;69520;44.900;-0.764;2023-05-10T06:04:25;12.95;;;1.20;;
80199;SDS011;69520;44.900;-0.764;2023-05-10T06:06:51;8.85;;;1.13;;
80199;SDS011;69520;44.900;-0.764;2023-05-10T06:09:17;8.63;;;1.20;;
80199;SDS011;69520;44.900;-0.764;2023-05-10T06:11:43;11.38;;;1.35;;
80199;SDS011;69520;44.900;-0.764;2023-05-10T06:14:09;7.20;;;1.27;;
80199;SDS011;69520;44.900;-0.764;2023-05-10T06:16:35;8.82;;;1.13;;
80199;SDS011;69520;44.900;-0.764;2023-05-10T06:19:02;7.28;;;1.20;;
80199;SDS011;69520;44.900;-0.764;2023-05-10T06:21:28;7.47;;;1.00;;
80199;SDS011;69520;44.900;-0.764;2023-05-10T06:23:54;8.07;;;1.20;;
80199;SDS011;69520;44.900;-0.764;2023-05-10T06:26:20;11.20;;;1.50;;
80199;SDS011;69520;44.900;-0.764;2023-05-10T06:28:46;8.57;;;1.30;;
80199;SDS011;69520;44.900;-0.764;2023-05-10T06:31:12;8.55;;;1.30;;
80199;SDS011;69520;44.900;-0.764;2023-05-10T06:33:38;7.27;;;1.30;;
80199;SDS011;69520;44.900;-0.764;2023-05-10T06:36:04;11.55;;;1.48;;
80199;SDS011;69520;44.900;-0.764;2023-05-10T06:38:30;11.10;;;1.60;;
80199;SDS011;69520;44.900;-0.764;2023-05-10T06:40:56;10.32;;;1.45;;
80199;SDS011;69520;44.900;-0.764;2023-05-10T06:43:22;11.07;;;1.48;;
80199;SDS011;69520;44.900;-0.764;2023-05-10T06:45:49;10.00;;;1.60;;
80199;SDS011;69520;44.900;-0.764;2023-05-10T06:48:16;12.13;;;1.60;;
80199;SDS011;69520;44.900;-0.764;2023-05-10T06:50:42;11.57;;;1.45;;
80199;SDS011;69520;44.900;-0.764;2023-05-10T06:53:08;13.63;;;1.65;;
80199;SDS011;69520;44.900;-0.764;2023-05-10T06:55:34;11.48;;;2.13;;
80199;SDS011;69520;44.900;-0.764;2023-05-10T06:58:00;9.87;;;1.40;;
80199;SDS011;69520;44.900;-0.764;2023-05-10T07:00:27;10.45;;;1.67;;
80199;SDS011;69520;44.900;-0.764;2023-05-10T07:02:53;11.15;;;1.50;;
80199;SDS011;69520;44.900;-0.764;2023-05-10T07:05:19;11.25;;;1.50;;
80199;SDS011;69520;44.900;-0.764;2023-05-10T07:07:46;10.77;;;1.70;;
80199;SDS011;69520;44.900;-0.764;2023-05-10T07:10:12;12.20;;;1.70;;
80199;SDS011;69520;44.900;-0.764;2023-05-10T07:12:38;9.07;;;1.40;;
80199;SDS011;69520;44.900;-0.764;2023-05-10T07:15:04;10.07;;;1.27;;
80199;SDS011;69520;44.900;-0.764;2023-05-10T07:17:31;12.15;;;1.48;;
80199;SDS011;69520;44.900;-0.764;2023-05-10T07:19:58;10.20;;;1.67;;
80199;SDS011;69520;44.900;-0.764;2023-05-10T07:22:24;10.00;;;1.20;;
80199;SDS011;69520;44.900;-0.764;2023-05-10T07:24:50;11.23;;;1.45;;
80199;SDS011;69520;44.900;-0.764;2023-05-10T07:27:16;13.35;;;1.50;;
80199;SDS011;69520;44.900;-0.764;2023-05-10T07:29:42;10.15;;;1.40;;
80199;SDS011;69520;44.900;-0.764;2023-05-10T07:32:08;8.65;;;1.23;;
80199;SDS011;69520;44.900;-0.764;2023-05-10T07:34:34;11.40;;;1.70;;
80199;SDS011;69520;44.900;-0.764;2023-05-10T07:37:00;13.60;;;1.35;;
80199;SDS011;69520;44.900;-0.764;2023-05-10T07:39:27;13.00;;;1.65;;
80199;SDS011;69520;44.900;-0.764;2023-05-10T07:41:56;8.90;;;1.27;;
80199;SDS011;69520;44.900;-0.764;2023-05-10T07:44:22;13.50;;;1.38;;
80199;SDS011;69520;44.900;-0.764;2023-05-10T07:46:48;10.03;;;1.20;;
80199;SDS011;69520;44.900;-0.764;2023-05-10T07:49:14;10.43;;;1.85;;
80199;SDS011;69520;44.900;-0.764;2023-05-10T07:51:40;10.05;;;1.25;;
80199;SDS011;69520;44.900;-0.764;2023-05-10T07:54:07;11.63;;;1.42;;
80199;SDS011;69520;44.900;-0.764;2023-05-10T07:56:33;9.57;;;1.40;;
80199;SDS011;69520;44.900;-0.764;2023-05-10T07:59:00;10.47;;;1.40;;
80199;SDS011;69520;44.900;-0.764;2023-05-10T08:01:26;11.90;;;1.70;;
80199;SDS011;69520;44.900;-0.764;2023-05-10T08:03:52;10.18;;;1.70;;
80199;SDS011;69520;44.900;-0.764;2023-05-10T08:06:18;9.50;;;1.60;;
80199;SDS011;69520;44.900;-0.764;2023-05-10T08:08:48;8.82;;;0.85;;
80199;SDS011;69520;44.900;-0.764;2023-05-10T08:11:18;7.20;;;0.83;;
80199;SDS011;69520;44.900;-0.764;2023-05-10T08:13:45;6.95;;;0.70;;
80199;SDS011;69520;44.900;-0.764;2023-05-10T08:16:12;7.90;;;0.70;;
80199;SDS011;69520;44.900;-0.764;2023-05-10T08:18:38;7.72;;;1.05;;
80199;SDS011;69520;44.900;-0.764;2023-05-10T08:21:04;8.35;;;0.88;;
80199;SDS011;69520;44.900;-0.764;2023-05-10T08:23:30;7.97;;;1.20;;
80199;SDS011;69520;44.900;-0.764;2023-05-10T08:25:56;7.93;;;1.00;;
80199;SDS011;69520;44.900;-0.764;2023-05-10T08:28:22;7.38;;;0.90;;
80199;SDS011;69520;44.900;-0.764;2023-05-10T08:30:49;7.30;;;0.80;;
80199;SDS011;69520;44.900;-0.764;2023-05-10T08:33:17;7.38;;;1.20;;
80199;SDS011;69520;44.900;-0.764;2023-05-10T08:35:43;8.57;;;1.27;;
80199;SDS011;69520;44.900;-0.764;2023-05-10T08:38:09;7.22;;;0.93;;
80199;SDS011;69520;44.900;-0.764;2023-05-10T08:40:36;14.60;;;1.50;;
80199;SDS011;69520;44.900;-0.764;2023-05-10T08:43:07;11.30;;;1.48;;
80199;SDS011;69520;44.900;-0.764;2023-05-10T08:45:36;12.48;;;1.50;;
80199;SDS011;69520;44.900;-0.764;2023-05-10T08:48:03;10.37;;;1.50;;
80199;SDS011;69520;44.900;-0.764;2023-05-10T08:50:30;8.50;;;1.10;;
80199;SDS011;69520;44.900;-0.764;2023-05-10T08:52:57;9.43;;;1.63;;
80199;SDS011;69520;44.900;-0.764;2023-05-10T08:55:24;11.38;;;2.22;;
80199;SDS011;69520;44.900;-0.764;2023-05-10T08:57:50;9.88;;;1.40;;
80199;SDS011;69520;44.900;-0.764;2023-05-10T09:00:17;8.20;;;1.20;;
80199;SDS011;69520;44.900;-0.764;2023-05-10T09:02:43;7.22;;;1.20;;
80199;SDS011;69520;44.900;-0.764;2023-05-10T09:05:10;8.25;;;1.10;;
80199;SDS011;69520;44.900;-0.764;2023-05-10T09:07:37;9.23;;;1.50;;
80199;SDS011;69520;44.900;-0.764;2023-05-10T09:10:03;7.90;;;1.13;;
80199;SDS011;69520;44.900;-0.764;2023-05-10T09:12:29;11.77;;;1.53;;
80199;SDS011;69520;44.900;-0.764;2023-05-10T09:14:55;8.02;;;1.10;;
80199;SDS011;69520;44.900;-0.764;2023-05-10T09:17:23;11.52;;;1.48;;
80199;SDS011;69520;44.900;-0.764;2023-05-10T09:19:49;10.05;;;1.55;;
80199;SDS011;69520;44.900;-0.764;2023-05-10T09:22:16;10.00;;;1.50;;
80199;SDS011;69520;44.900;-0.764;2023-05-10T09:24:42;9.57;;;1.70;;
80199;SDS011;69520;44.900;-0.764;2023-05-10T09:27:10;8.07;;;1.00;;
80199;SDS011;69520;44.900;-0.764;2023-05-10T09:29:39;10.93;;;1.02;;
80199;SDS011;69520;44.900;-0.764;2023-05-10T09:32:05;7.57;;;0.82;;
80199;SDS011;69520;44.900;-0.764;2023-05-10T09:34:32;9.70;;;0.93;;
80199;SDS011;69520;44.900;-0.764;2023-05-10T09:37:00;8.97;;;0.80;;
80199;SDS011;69520;44.900;-0.764;2023-05-10T09:39:29;9.15;;;0.90;;
80199;SDS011;69520;44.900;-0.764;2023-05-10T09:41:56;14.45;;;2.08;;
80199;SDS011;69520;44.900;-0.764;2023-05-10T09:44:22;5.13;;;0.68;;
80199;SDS011;69520;44.900;-0.764;2023-05-10T09:46:49;4.85;;;0.60;;
80199;SDS011;69520;44.900;-0.764;2023-05-10T09:49:15;7.30;;;1.07;;
80199;SDS011;69520;44.900;-0.764;2023-05-10T09:51:41;6.68;;;0.70;;
80199;SDS011;69520;44.900;-0.764;2023-05-10T09:54:14;8.43;;;0.95;;
80199;SDS011;69520;44.900;-0.764;2023-05-10T09:56:41;7.43;;;0.70;;
80199;SDS011;69520;44.900;-0.764;2023-05-10T09:59:11;7.47;;;0.70;;
80199;SDS011;69520;44.900;-0.764;2023-05-10T10:01:38;14.13;;;1.23;;
80199;SDS011;69520;44.900;-0.764;2023-05-10T10:04:04;7.45;;;1.20;;
80199;SDS011;69520;44.900;-0.764;2023-05-10T10:06:37;8.70;;;1.27;;
80199;SDS011;69520;44.900;-0.764;2023-05-10T10:09:04;9.02;;;1.13;;
80199;SDS011;69520;44.900;-0.764;2023-05-10T10:11:30;8.85;;;1.50;;
80199;SDS011;69520;44.900;-0.764;2023-05-10T10:13:57;10.37;;;1.37;;
80199;SDS011;69520;44.900;-0.764;2023-05-10T10:16:24;10.25;;;1.27;;
80199;SDS011;69520;44.900;-0.764;2023-05-10T10:18:50;8.77;;;1.13;;
80199;SDS011;69520;44.900;-0.764;2023-05-10T10:21:16;11.68;;;1.45;;
80199;SDS011;69520;44.900;-0.764;2023-05-10T10:23:42;7.80;;;1.00;;
80199;SDS011;69520;44.900;-0.764;2023-05-10T10:26:08;8.57;;;1.07;;
80199;SDS011;69520;44.900;-0.764;2023-05-10T10:28:39;7.32;;;0.70;;
80199;SDS011;69520;44.900;-0.764;2023-05-10T10:31:18;7.32;;;0.85;;
80199;SDS011;69520;44.900;-0.764;2023-05-10T10:34:03;6.13;;;0.60;;
80199;SDS011;69520;44.900;-0.764;2023-05-10T10:36:31;6.97;;;0.60;;
80199;SDS011;69520;44.900;-0.764;2023-05-10T10:38:59;4.57;;;0.40;;
80199;SDS011;69520;44.900;-0.764;2023-05-10T10:41:35;5.60;;;0.52;;
80199;SDS011;69520;44.900;-0.764;2023-05-10T10:49:48;6.50;;;0.40;;
80199;SDS011;69520;44.900;-0.764;2023-05-10T11:00:18;6.90;;;0.60;;
80199;SDS011;69520;44.900;-0.764;2023-05-10T11:02:45;7.03;;;0.70;;
80199;SDS011;69520;44.900;-0.764;2023-05-10T11:07:55;5.38;;;0.80;;
80199;SDS011;69520;44.900;-0.764;2023-05-10T11:10:21;5.47;;;0.90;;
80199;SDS011;69520;44.900;-0.764;2023-05-10T11:12:51;4.88;;;0.73;;
80199;SDS011;69520;44.900;-0.764;2023-05-10T11:15:19;7.60;;;0.65;;
80199;SDS011;69520;44.900;-0.764;2023-05-10T11:17:45;5.73;;;0.50;;
80199;SDS011;69520;44.900;-0.764;2023-05-10T11:20:16;5.75;;;0.90;;
80199;SDS011;69520;44.900;-0.764;2023-05-10T11:22:51;4.95;;;0.50;;
80199;SDS011;69520;44.900;-0.764;2023-05-10T11:25:17;6.85;;;0.70;;
80199;SDS011;69520;44.900;-0.764;2023-05-10T11:27:43;5.15;;;0.60;;
80199;SDS011;69520;44.900;-0.764;2023-05-10T11:30:10;4.40;;;0.57;;
80199;SDS011;69520;44.900;-0.764;2023-05-10T11:32:39;7.68;;;0.90;;
80199;SDS011;69520;44.900;-0.764;2023-05-10T11:35:09;6.80;;;0.98;;
80199;SDS011;69520;44.900;-0.764;2023-05-10T11:37:36;7.22;;;0.60;;
80199;SDS011;69520;44.900;-0.764;2023-05-10T11:40:04;6.90;;;0.70;;
80199;SDS011;69520;44.900;-0.764;2023-05-10T11:42:30;9.07;;;1.07;;
80199;SDS011;69520;44.900;-0.764;2023-05-10T11:44:56;7.22;;;1.10;;
80199;SDS011;69520;44.900;-0.764;2023-05-10T11:47:22;7.88;;;1.13;;
80199;SDS011;69520;44.900;-0.764;2023-05-10T11:49:48;7.90;;;1.00;;
80199;SDS011;69520;44.900;-0.764;2023-05-10T11:52:15;7.35;;;0.93;;
80199;SDS011;69520;44.900;-0.764;2023-05-10T11:54:44;9.73;;;0.87;;
80199;SDS011;69520;44.900;-0.764;2023-05-10T11:57:11;9.23;;;1.00;;
80199;SDS011;69520;44.900;-0.764;2023-05-10T11:59:37;8.35;;;0.90;;
80199;SDS011;69520;44.900;-0.764;2023-05-10T12:02:03;9.90;;;0.70;;
80199;SDS011;69520;44.900;-0.764;2023-05-10T12:04:29;8.52;;;0.98;;
80199;SDS011;69520;44.900;-0.764;2023-05-10T12:06:55;7.20;;;1.00;;
80199;SDS011;69520;44.900;-0.764;2023-05-10T12:09:22;7.60;;;1.08;;
80199;SDS011;69520;44.900;-0.764;2023-05-10T12:11:48;8.55;;;0.88;;
80199;SDS011;69520;44.900;-0.764;2023-05-10T12:14:14;5.93;;;0.68;;
80199;SDS011;69520;44.900;-0.764;2023-05-10T12:16:40;5.15;;;1.00;;
80199;SDS011;69520;44.900;-0.764;2023-05-10T12:19:08;7.80;;;0.90;;
80199;SDS011;69520;44.900;-0.764;2023-05-10T12:21:34;8.65;;;0.90;;
80199;SDS011;69520;44.900;-0.764;2023-05-10T12:24:03;7.43;;;1.05;;
80199;SDS011;69520;44.900;-0.764;2023-05-10T12:26:33;7.47;;;1.00;;
80199;SDS011;69520;44.900;-0.764;2023-05-10T12:29:13;11.48;;;1.38;;
80199;SDS011;69520;44.900;-0.764;2023-05-10T12:31:52;6.37;;;0.93;;
80199;SDS011;69520;44.900;-0.764;2023-05-10T12:34:32;5.55;;;0.80;;
80199;SDS011;69520;44.900;-0.764;2023-05-10T12:36:58;6.28;;;1.17;;
80199;SDS011;69520;44.900;-0.764;2023-05-10T12:39:24;8.55;;;1.00;;
80199;SDS011;69520;44.900;-0.764;2023-05-10T12:41:51;10.00;;;1.42;;
80199;SDS011;69520;44.900;-0.764;2023-05-10T12:44:17;8.90;;;1.00;;
80199;SDS011;69520;44.900;-0.764;2023-05-10T12:46:43;8.80;;;1.08;;
80199;SDS011;69520;44.900;-0.764;2023-05-10T12:49:09;8.10;;;1.55;;
80199;SDS011;69520;44.900;-0.764;2023-05-10T12:51:35;11.70;;;1.40;;
80199;SDS011;69520;44.900;-0.764;2023-05-10T12:54:02;7.80;;;1.40;;
80199;SDS011;69520;44.900;-0.764;2023-05-10T12:56:28;9.43;;;1.10;;
80199;SDS011;69520;44.900;-0.764;2023-05-10T12:58:54;8.43;;;1.30;;
80199;SDS011;69520;44.900;-0.764;2023-05-10T13:01:20;8.85;;;1.15;;
80199;SDS011;69520;44.900;-0.764;2023-05-10T13:03:46;8.82;;;1.00;;
80199;SDS011;69520;44.900;-0.764;2023-05-10T13:06:13;9.10;;;1.00;;
80199;SDS011;69520;44.900;-0.764;2023-05-10T13:08:39;9.50;;;1.27;;
80199;SDS011;69520;44.900;-0.764;2023-05-10T13:11:05;10.60;;;1.17;;
80199;SDS011;69520;44.900;-0.764;2023-05-10T13:13:31;8.63;;;1.52;;
80199;SDS011;69520;44.900;-0.764;2023-05-10T13:15:57;9.68;;;1.25;;
80199;SDS011;69520;44.900;-0.764;2023-05-10T13:18:23;8.18;;;1.35;;
80199;SDS011;69520;44.900;-0.764;2023-05-10T13:20:51;9.03;;;1.33;;
80199;SDS011;69520;44.900;-0.764;2023-05-10T13:23:17;8.82;;;1.42;;
80199;SDS011;69520;44.900;-0.764;2023-05-10T13:25:43;8.82;;;1.38;;
80199;SDS011;69520;44.900;-0.764;2023-05-10T13:28:08;8.77;;;1.30;;
80199;SDS011;69520;44.900;-0.764;2023-05-10T13:30:35;9.43;;;1.23;;
80199;SDS011;69520;44.900;-0.764;2023-05-10T13:33:01;6.63;;;1.07;;
80199;SDS011;69520;44.900;-0.764;2023-05-10T13:35:27;8.68;;;1.33;;
80199;SDS011;69520;44.900;-0.764;2023-05-10T13:37:53;7.53;;;0.90;;
80199;SDS011;69520;44.900;-0.764;2023-05-10T13:40:21;8.90;;;1.08;;
80199;SDS011;69520;44.900;-0.764;2023-05-10T13:42:47;7.78;;;1.40;;
80199;SDS011;69520;44.900;-0.764;2023-05-10T13:45:13;10.17;;;1.10;;
80199;SDS011;69520;44.900;-0.764;2023-05-10T13:47:42;8.68;;;1.35;;
80199;SDS011;69520;44.900;-0.764;2023-05-10T13:50:08;10.13;;;1.30;;
80199;SDS011;69520;44.900;-0.764;2023-05-10T13:52:35;6.88;;;1.08;;
80199;SDS011;69520;44.900;-0.764;2023-05-10T13:55:00;10.02;;;1.00;;
80199;SDS011;69520;44.900;-0.764;2023-05-10T13:57:26;9.70;;;0.90;;
80199;SDS011;69520;44.900;-0.764;2023-05-10T13:59:53;6.85;;;1.15;;
80199;SDS011;69520;44.900;-0.764;2023-05-10T14:02:20;10.40;;;1.60;;
80199;SDS011;69520;44.900;-0.764;2023-05-10T14:04:46;8.45;;;1.00;;
80199;SDS011;69520;44.900;-0.764;2023-05-10T14:07:12;8.93;;;1.13;;
80199;SDS011;69520;44.900;-0.764;2023-05-10T14:09:38;6.30;;;0.90;;
80199;SDS011;69520;44.900;-0.764;2023-05-10T14:12:04;6.30;;;0.75;;
80199;SDS011;69520;44.900;-0.764;2023-05-10T14:14:30;5.50;;;0.80;;
80199;SDS011;69520;44.900;-0.764;2023-05-10T14:16:56;6.07;;;0.82;;
80199;SDS011;69520;44.900;-0.764;2023-05-10T14:19:22;9.38;;;1.13;;
80199;SDS011;69520;44.900;-0.764;2023-05-10T14:21:48;7.03;;;0.83;;
80199;SDS011;69520;44.900;-0.764;2023-05-10T14:24:14;6.25;;;0.80;;
80199;SDS011;69520;44.900;-0.764;2023-05-10T14:26:40;8.18;;;0.90;;
80199;SDS011;69520;44.900;-0.764;2023-05-10T14:29:06;7.38;;;0.60;;
80199;SDS011;69520;44.900;-0.764;2023-05-10T14:31:32;8.50;;;1.05;;
80199;SDS011;69520;44.900;-0.764;2023-05-10T14:33:58;9.57;;;0.77;;
80199;SDS011;69520;44.900;-0.764;2023-05-10T14:36:24;9.20;;;0.98;;
80199;SDS011;69520;44.900;-0.764;2023-05-10T14:38:50;10.90;;;1.10;;
80199;SDS011;69520;44.900;-0.764;2023-05-10T14:41:17;9.70;;;1.00;;
80199;SDS011;69520;44.900;-0.764;2023-05-10T14:43:43;6.95;;;0.80;;
80199;SDS011;69520;44.900;-0.764;2023-05-10T14:46:09;11.30;;;1.10;;
80199;SDS011;69520;44.900;-0.764;2023-05-10T14:48:35;7.22;;;0.77;;
80199;SDS011;69520;44.900;-0.764;2023-05-10T14:51:01;9.82;;;1.13;;
80199;SDS011;69520;44.900;-0.764;2023-05-10T14:53:28;7.15;;;0.90;;
80199;SDS011;69520;44.900;-0.764;2023-05-10T14:55:54;9.05;;;1.50;;
80199;SDS011;69520;44.900;-0.764;2023-05-10T14:58:20;7.50;;;1.10;;
80199;SDS011;69520;44.900;-0.764;2023-05-10T15:00:46;6.93;;;0.85;;
80199;SDS011;69520;44.900;-0.764;2023-05-10T15:03:12;7.38;;;1.20;;
80199;SDS011;69520;44.900;-0.764;2023-05-10T15:05:38;10.63;;;1.42;;
80199;SDS011;69520;44.900;-0.764;2023-05-10T15:08:04;9.35;;;0.98;;
80199;SDS011;69520;44.900;-0.764;2023-05-10T15:10:30;7.27;;;0.90;;